createdAt,value
2019-05-26T00:02:26.321Z,18.70
2019-05-26T00:04:56.918Z,18.70
2019-05-26T00:07:30.575Z,18.60
2019-05-26T00:10:00.777Z,18.60
2019-05-26T00:12:31.589Z,18.60
2019-05-26T00:15:02.155Z,18.60
2019-05-26T00:17:33.101Z,18.50
2019-05-26T00:20:03.840Z,18.50
2019-05-26T00:22:34.611Z,18.50
2019-05-26T00:25:06.358Z,18.50
2019-05-26T00:27:37.233Z,18.50
2019-05-26T00:30:08.548Z,18.40
2019-05-26T00:32:40.607Z,18.40
2019-05-26T00:35:11.458Z,18.30
2019-05-26T00:37:50.576Z,18.40
2019-05-26T00:40:14.819Z,18.30
2019-05-26T00:42:45.464Z,18.20
2019-05-26T00:45:17.010Z,18.20
2019-05-26T00:47:47.956Z,18.20
2019-05-26T00:50:18.961Z,18.20
2019-05-26T00:52:49.759Z,18.10
2019-05-26T00:55:20.765Z,18.10
2019-05-26T00:57:51.446Z,18.10
2019-05-26T01:00:38.543Z,18.10
2019-05-26T01:03:09.307Z,18.00
2019-05-26T01:05:39.933Z,18.00
2019-05-26T01:08:12.383Z,17.90
2019-05-26T01:10:42.977Z,17.90
2019-05-26T01:13:13.539Z,17.90
2019-05-26T01:15:44.212Z,17.90
2019-05-26T01:18:14.732Z,17.90
2019-05-26T01:20:45.299Z,17.90
2019-05-26T01:23:15.892Z,17.80
2019-05-26T01:25:47.439Z,17.80
2019-05-26T01:28:18.008Z,17.70
2019-05-26T01:30:52.088Z,17.70
2019-05-26T01:33:22.749Z,17.70
2019-05-26T01:35:53.788Z,17.60
2019-05-26T01:38:24.621Z,17.60
2019-05-26T01:40:55.202Z,17.60
2019-05-26T01:43:25.761Z,17.50
2019-05-26T01:45:56.424Z,17.50
2019-05-26T01:48:27.029Z,17.50
2019-05-26T01:50:57.622Z,17.50
2019-05-26T01:53:28.160Z,17.40
2019-05-26T01:55:58.737Z,17.40
2019-05-26T01:58:30.318Z,17.40
2019-05-26T02:01:00.892Z,17.40
2019-05-26T02:03:32.409Z,17.40
2019-05-26T02:06:03.025Z,17.40
2019-05-26T02:08:39.429Z,17.30
2019-05-26T02:11:06.019Z,17.30
2019-05-26T02:13:49.193Z,17.30
2019-05-26T02:16:19.752Z,17.30
2019-05-26T02:18:50.320Z,17.30
2019-05-26T02:21:20.779Z,17.30
2019-05-26T02:23:51.309Z,17.20
2019-05-26T02:26:21.787Z,17.20
2019-05-26T02:28:52.300Z,17.20
2019-05-26T02:31:22.835Z,17.20
2019-05-26T02:33:53.356Z,17.20
2019-05-26T02:36:23.823Z,17.20
2019-05-26T02:39:02.236Z,17.10
2019-05-26T02:41:26.656Z,17.10
2019-05-26T02:43:58.542Z,17.10
2019-05-26T02:46:29.211Z,17.10
2019-05-26T02:48:59.679Z,17.10
2019-05-26T02:51:30.241Z,17.10
2019-05-26T02:54:00.751Z,17.10
2019-05-26T02:56:31.887Z,17.00
2019-05-26T02:59:02.445Z,17.00
2019-05-26T03:01:33.588Z,17.00
2019-05-26T03:04:03.087Z,17.00
2019-05-26T03:06:35.397Z,16.90
2019-05-26T03:09:22.101Z,17.00
2019-05-26T03:11:40.984Z,17.00
2019-05-26T03:14:12.044Z,16.90
2019-05-26T03:16:44.139Z,16.90
2019-05-26T03:19:17.409Z,16.90
2019-05-26T03:21:50.004Z,16.90
2019-05-26T03:24:23.309Z,16.80
2019-05-26T03:26:53.819Z,16.80
2019-05-26T03:29:24.425Z,16.80
2019-05-26T03:31:54.968Z,16.80
2019-05-26T03:34:25.653Z,16.70
2019-05-26T03:36:57.321Z,16.70
2019-05-26T03:39:43.679Z,16.70
2019-05-26T03:41:59.985Z,16.70
2019-05-26T03:44:31.882Z,16.70
2019-05-26T03:47:02.501Z,16.70
2019-05-26T03:49:33.061Z,16.60
2019-05-26T03:52:05.335Z,16.70
2019-05-26T03:54:35.953Z,16.70
2019-05-26T03:57:06.509Z,16.70
2019-05-26T03:59:37.046Z,16.60
2019-05-26T04:02:07.575Z,16.60
2019-05-26T04:04:38.196Z,16.60
2019-05-26T04:07:08.752Z,16.60
2019-05-26T04:09:39.300Z,16.60
2019-05-26T04:12:10.131Z,16.60
2019-05-26T04:14:40.774Z,16.50
2019-05-26T04:17:11.346Z,16.50
2019-05-26T04:19:41.847Z,16.50
2019-05-26T04:22:12.385Z,16.50
2019-05-26T04:24:43.815Z,16.50
2019-05-26T04:27:14.417Z,16.50
2019-05-26T04:29:44.893Z,16.50
2019-05-26T04:32:15.417Z,16.50
2019-05-26T04:34:46.916Z,16.50
2019-05-26T04:37:17.411Z,16.50
2019-05-26T04:39:47.989Z,16.50
2019-05-26T04:42:18.530Z,16.50
2019-05-26T04:44:49.126Z,16.50
2019-05-26T04:47:19.701Z,16.50
2019-05-26T04:49:50.306Z,16.50
2019-05-26T04:52:20.791Z,16.50
2019-05-26T04:54:51.348Z,16.50
2019-05-26T04:57:21.868Z,16.60
2019-05-26T04:59:52.407Z,16.50
2019-05-26T05:02:23.013Z,16.60
2019-05-26T05:04:53.614Z,16.60
2019-05-26T05:07:28.121Z,16.60
2019-05-26T05:09:57.116Z,16.60
2019-05-26T05:12:28.903Z,16.60
2019-05-26T05:14:59.749Z,16.60
2019-05-26T05:17:31.250Z,16.60
2019-05-26T05:20:02.005Z,16.70
2019-05-26T05:22:33.571Z,16.70
2019-05-26T05:25:08.703Z,16.70
2019-05-26T05:27:36.594Z,16.70
2019-05-26T05:30:07.896Z,16.70
2019-05-26T05:32:37.325Z,16.70
2019-05-26T05:35:08.125Z,16.70
2019-05-26T05:37:38.685Z,16.60
2019-05-26T05:40:09.664Z,16.60
2019-05-26T05:42:40.368Z,16.60
2019-05-26T05:45:11.533Z,16.60
2019-05-26T05:47:42.089Z,16.60
2019-05-26T05:50:12.922Z,16.60
2019-05-26T05:52:43.480Z,16.70
2019-05-26T05:55:14.350Z,16.60
2019-05-26T05:57:44.896Z,16.70
2019-05-26T06:00:15.782Z,16.70
2019-05-26T06:02:46.358Z,16.70
2019-05-26T06:05:17.161Z,16.80
2019-05-26T06:07:47.738Z,16.80
2019-05-26T06:10:19.165Z,16.90
2019-05-26T06:12:49.843Z,16.90
2019-05-26T06:15:20.431Z,17.00
2019-05-26T06:17:52.602Z,17.00
2019-05-26T06:20:23.208Z,17.10
2019-05-26T06:22:53.735Z,17.10
2019-05-26T06:25:24.294Z,17.20
2019-05-26T06:27:54.786Z,17.30
2019-05-26T06:30:25.424Z,17.40
2019-05-26T06:32:56.105Z,17.50
2019-05-26T06:35:26.921Z,17.60
2019-05-26T06:37:57.521Z,17.70
2019-05-26T06:40:28.306Z,17.90
2019-05-26T06:43:00.656Z,17.90
2019-05-26T06:45:33.841Z,18.00
2019-05-26T06:48:04.558Z,18.10
2019-05-26T06:50:37.388Z,18.20
2019-05-26T06:53:07.624Z,18.30
2019-05-26T06:55:38.290Z,18.30
2019-05-26T06:58:08.997Z,18.30
2019-05-26T07:00:39.662Z,18.30
2019-05-26T07:03:15.804Z,18.30
2019-05-26T07:05:46.492Z,18.30
2019-05-26T07:08:17.425Z,18.30
2019-05-26T07:10:48.168Z,18.40
2019-05-26T07:13:20.816Z,18.30
2019-05-26T07:15:51.467Z,18.30
2019-05-26T07:18:22.042Z,18.30
2019-05-26T07:20:52.779Z,18.40
2019-05-26T07:23:23.581Z,18.40
2019-05-26T07:25:54.334Z,18.40
2019-05-26T07:28:25.016Z,18.40
2019-05-26T07:30:55.998Z,18.40
2019-05-26T07:33:28.907Z,18.40
2019-05-26T07:36:00.398Z,18.30
2019-05-26T07:38:32.581Z,18.30
2019-05-26T07:41:03.779Z,18.40
2019-05-26T07:43:35.706Z,18.50
2019-05-26T07:46:06.355Z,18.60
2019-05-26T07:48:38.289Z,18.70
2019-05-26T07:51:08.861Z,18.90
2019-05-26T07:55:46.946Z,19.00
2019-05-26T07:58:18.376Z,19.00
2019-05-26T08:00:49.071Z,19.00
2019-05-26T08:03:19.719Z,19.20
2019-05-26T08:05:50.444Z,19.30
2019-05-26T08:08:21.295Z,19.30
2019-05-26T08:10:52.388Z,19.30
2019-05-26T08:13:23.000Z,19.30
2019-05-26T08:15:53.609Z,19.40
2019-05-26T08:18:24.166Z,19.50
2019-05-26T08:20:54.791Z,19.60
2019-05-26T08:23:25.453Z,19.70
2019-05-26T08:25:56.656Z,19.80
2019-05-26T08:28:27.857Z,19.90
2019-05-26T08:30:58.534Z,19.90
2019-05-26T08:33:29.281Z,19.80
2019-05-26T08:36:00.069Z,19.80
2019-05-26T08:38:31.010Z,19.80
2019-05-26T08:41:01.915Z,19.90
2019-05-26T08:43:34.404Z,19.90
2019-05-26T08:46:05.072Z,20.00
2019-05-26T08:48:36.107Z,20.00
2019-05-26T08:51:06.828Z,20.00
2019-05-26T08:53:37.634Z,20.00
2019-05-26T08:56:08.337Z,19.90
2019-05-26T08:58:39.005Z,19.80
2019-05-26T09:01:10.766Z,19.80
2019-05-26T09:03:41.487Z,19.80
2019-05-26T09:06:13.041Z,19.90
2019-05-26T09:08:44.374Z,19.90
2019-05-26T09:11:15.253Z,20.10
2019-05-26T09:13:45.863Z,20.30
2019-05-26T09:16:16.591Z,20.40
2019-05-26T09:18:47.578Z,20.50
2019-05-26T09:21:18.294Z,20.60
2019-05-26T09:23:49.152Z,20.70
2019-05-26T09:26:19.819Z,20.70
2019-05-26T09:28:50.564Z,20.90
2019-05-26T09:31:21.337Z,20.90
2019-05-26T09:33:51.944Z,21.10
2019-05-26T09:36:22.577Z,21.20
2019-05-26T09:38:54.610Z,21.30
2019-05-26T09:41:24.170Z,21.40
2019-05-26T09:43:55.746Z,21.40
2019-05-26T09:46:26.518Z,21.50
2019-05-26T09:49:00.883Z,21.50
2019-05-26T09:51:31.589Z,21.50
2019-05-26T09:54:02.430Z,21.60
2019-05-26T09:56:33.338Z,21.70
2019-05-26T09:59:04.190Z,21.80
2019-05-26T10:01:35.062Z,21.80
2019-05-26T10:04:06.121Z,21.80
2019-05-26T10:06:36.189Z,21.90
2019-05-26T10:09:08.568Z,22.00
2019-05-26T10:11:39.590Z,22.00
2019-05-26T10:14:09.190Z,22.00
2019-05-26T10:16:39.774Z,22.00
2019-05-26T10:19:10.800Z,22.00
2019-05-26T10:21:40.348Z,22.00
2019-05-26T10:24:11.427Z,22.00
2019-05-26T10:26:42.024Z,22.00
2019-05-26T10:29:12.794Z,22.10
2019-05-26T10:31:43.384Z,22.10
2019-05-26T10:34:14.089Z,22.20
2019-05-26T10:36:44.792Z,22.20
2019-05-26T10:39:15.435Z,22.20
2019-05-26T10:41:46.208Z,22.30
2019-05-26T10:44:19.106Z,22.30
2019-05-26T10:46:49.923Z,22.30
2019-05-26T10:49:20.874Z,22.20
2019-05-26T10:51:53.014Z,22.10
2019-05-26T10:54:23.769Z,22.30
2019-05-26T10:56:55.745Z,22.30
2019-05-26T10:59:26.556Z,22.50
2019-05-26T11:01:57.238Z,22.60
2019-05-26T11:04:27.962Z,22.60
2019-05-26T11:07:01.630Z,22.80
2019-05-26T11:09:32.379Z,22.80
2019-05-26T11:12:04.608Z,22.80
2019-05-26T11:14:35.229Z,22.70
2019-05-26T11:17:07.786Z,22.70
2019-05-26T11:19:40.778Z,22.60
2019-05-26T11:22:11.777Z,22.60
2019-05-26T11:24:42.468Z,22.70
2019-05-26T11:27:14.301Z,22.60
2019-05-26T11:29:45.861Z,22.70
2019-05-26T11:32:17.170Z,22.70
2019-05-26T11:35:00.624Z,22.80
2019-05-26T11:37:21.932Z,22.90
2019-05-26T11:39:54.673Z,23.00
2019-05-26T11:42:26.203Z,23.00
2019-05-26T11:44:57.160Z,23.20
2019-05-26T11:47:28.240Z,23.30
2019-05-26T11:49:58.900Z,23.50
2019-05-26T11:53:07.122Z,23.50
2019-05-26T11:55:37.928Z,23.60
2019-05-26T11:58:08.688Z,23.60
2019-05-26T12:00:39.497Z,23.70
2019-05-26T12:03:10.232Z,23.70
2019-05-26T12:05:41.005Z,23.60
2019-05-26T12:08:11.745Z,23.50
2019-05-26T12:10:42.694Z,23.30
2019-05-26T12:13:15.039Z,23.30
2019-05-26T12:15:45.756Z,23.30
2019-05-26T12:18:16.631Z,23.20
2019-05-26T12:20:48.075Z,23.20
2019-05-26T12:23:20.128Z,23.20
2019-05-26T12:25:50.946Z,23.30
2019-05-26T12:28:21.500Z,23.30
2019-05-26T12:30:52.150Z,23.20
2019-05-26T12:33:25.442Z,23.30
2019-05-26T12:35:56.075Z,23.30
2019-05-26T12:38:26.973Z,23.30
2019-05-26T12:40:56.624Z,23.20
2019-05-26T12:43:27.280Z,23.20
2019-05-26T12:45:57.967Z,23.20
2019-05-26T12:48:28.680Z,23.30
2019-05-26T12:51:01.619Z,23.40
2019-05-26T12:53:32.483Z,23.40
2019-05-26T12:56:03.494Z,23.60
2019-05-26T12:58:32.985Z,23.70
2019-05-26T13:01:05.596Z,23.80
2019-05-26T13:03:36.695Z,23.90
2019-05-26T13:06:08.530Z,23.80
2019-05-26T13:08:39.560Z,23.70
2019-05-26T13:11:09.132Z,23.60
2019-05-26T13:13:39.976Z,23.50
2019-05-26T13:16:10.809Z,23.30
2019-05-26T13:18:41.587Z,23.00
2019-05-26T13:21:12.332Z,22.80
2019-05-26T13:23:45.949Z,22.70
2019-05-26T13:26:16.706Z,22.50
2019-05-26T13:28:47.654Z,22.30
2019-05-26T13:31:18.298Z,22.10
2019-05-26T13:33:49.052Z,21.80
2019-05-26T13:36:19.668Z,21.70
2019-05-26T13:38:50.259Z,21.50
2019-05-26T13:41:20.978Z,21.40
2019-05-26T13:43:51.822Z,21.20
2019-05-26T13:46:25.105Z,21.10
2019-05-26T13:48:56.102Z,21.00
2019-05-26T13:51:26.993Z,21.00
2019-05-26T13:53:58.652Z,21.20
2019-05-26T13:56:29.536Z,21.40
2019-05-26T13:59:00.311Z,21.70
2019-05-26T14:01:31.042Z,21.80
2019-05-26T14:04:03.722Z,21.70
2019-05-26T14:06:35.359Z,21.40
2019-05-26T14:09:09.535Z,21.20
2019-05-26T14:11:40.285Z,20.90
2019-05-26T14:14:10.906Z,20.90
2019-05-26T14:16:45.073Z,20.90
2019-05-26T14:19:18.212Z,20.80
2019-05-26T14:21:51.216Z,20.70
2019-05-26T14:24:22.296Z,20.60
2019-05-26T14:26:51.807Z,20.50
2019-05-26T14:29:22.789Z,20.40
2019-05-26T14:31:53.335Z,20.30
2019-05-26T14:34:24.259Z,20.20
2019-05-26T14:36:56.416Z,20.20
2019-05-26T14:39:27.274Z,20.20
2019-05-26T14:41:58.020Z,20.40
2019-05-26T14:44:35.957Z,20.40
2019-05-26T14:47:06.674Z,20.50
2019-05-26T14:49:40.269Z,20.50
2019-05-26T14:52:11.113Z,20.40
2019-05-26T14:54:41.797Z,20.40
2019-05-26T14:57:13.539Z,20.40
2019-05-26T14:59:44.239Z,20.20
2019-05-26T15:02:15.052Z,20.10
2019-05-26T15:04:47.806Z,20.10
2019-05-26T15:07:18.899Z,20.00
2019-05-26T15:09:49.829Z,20.00
2019-05-26T15:12:20.560Z,19.90
2019-05-26T15:14:51.231Z,20.00
2019-05-26T15:17:22.964Z,19.90
2019-05-26T15:19:53.614Z,20.00
2019-05-26T15:22:24.213Z,19.90
2019-05-26T15:24:54.863Z,19.80
2019-05-26T15:27:26.422Z,19.70
2019-05-26T15:29:57.550Z,19.60
2019-05-26T15:32:27.079Z,19.50
2019-05-26T15:34:57.616Z,19.40
2019-05-26T15:37:28.623Z,19.40
2019-05-26T15:40:00.605Z,19.40
2019-05-26T15:42:34.582Z,19.50
2019-05-26T15:45:05.678Z,19.50
2019-05-26T15:47:39.062Z,19.70
2019-05-26T15:50:13.412Z,19.80
2019-05-26T15:52:42.197Z,19.90
2019-05-26T15:55:15.279Z,20.00
2019-05-26T15:57:46.043Z,20.10
2019-05-26T16:00:17.067Z,20.20
2019-05-26T16:02:49.253Z,20.20
2019-05-26T16:05:21.518Z,20.20
2019-05-26T16:07:52.118Z,20.10
2019-05-26T16:10:22.777Z,20.00
2019-05-26T16:12:53.484Z,19.90
2019-05-26T16:15:24.424Z,19.80
2019-05-26T16:17:55.191Z,19.70
2019-05-26T16:20:27.443Z,19.70
2019-05-26T16:22:58.155Z,19.60
2019-05-26T16:25:29.742Z,19.50
2019-05-26T16:28:00.410Z,19.50
2019-05-26T16:30:31.135Z,19.50
2019-05-26T16:33:02.063Z,19.60
2019-05-26T16:35:33.243Z,19.70
2019-05-26T16:38:02.781Z,19.80
2019-05-26T16:40:33.692Z,19.90
2019-05-26T16:43:06.645Z,19.90
2019-05-26T16:45:37.301Z,19.90
2019-05-26T16:48:08.939Z,19.90
2019-05-26T16:50:39.639Z,19.80
2019-05-26T16:53:10.387Z,19.80
2019-05-26T16:55:40.989Z,19.80
2019-05-26T16:58:11.644Z,19.80
2019-05-26T17:00:42.292Z,19.80
2019-05-26T17:03:13.144Z,19.70
2019-05-26T17:05:44.790Z,19.70
2019-05-26T17:08:15.362Z,19.60
2019-05-26T17:10:46.030Z,19.50
2019-05-26T17:13:16.794Z,19.50
2019-05-26T17:15:47.400Z,19.40
2019-05-26T17:18:18.019Z,19.40
2019-05-26T17:20:48.466Z,19.40
2019-05-26T17:23:19.256Z,19.50
2019-05-26T17:25:49.886Z,19.50
2019-05-26T17:28:20.549Z,19.50
2019-05-26T17:30:51.123Z,19.60
2019-05-26T17:33:21.791Z,19.70
2019-05-26T17:35:52.329Z,19.70
2019-05-26T17:38:22.953Z,19.70
2019-05-26T17:42:51.814Z,19.70
2019-05-26T17:45:23.508Z,19.70
2019-05-26T17:47:54.218Z,19.70
2019-05-26T17:50:24.846Z,19.60
2019-05-26T17:52:55.523Z,19.60
2019-05-26T17:55:26.216Z,19.60
2019-05-26T17:57:56.848Z,19.60
2019-05-26T18:00:27.814Z,19.50
2019-05-26T18:02:58.478Z,19.50
2019-05-26T18:05:29.477Z,19.50
2019-05-26T18:08:00.169Z,19.40
2019-05-26T18:10:30.966Z,19.40
2019-05-26T18:13:01.601Z,19.30
2019-05-26T18:15:33.918Z,19.30
2019-05-26T18:18:05.439Z,19.20
2019-05-26T18:20:36.162Z,19.20
2019-05-26T18:23:06.795Z,19.20
2019-05-26T18:25:37.350Z,19.10
2019-05-26T18:28:07.985Z,19.10
2019-05-26T18:30:39.703Z,19.10
2019-05-26T18:33:10.332Z,19.10
2019-05-26T18:35:40.959Z,19.10
2019-05-26T18:38:12.116Z,19.10
2019-05-26T18:40:41.730Z,19.10
2019-05-26T18:43:12.789Z,19.10
2019-05-26T18:45:42.864Z,19.10
2019-05-26T18:48:18.642Z,19.10
2019-05-26T18:50:51.778Z,19.00
2019-05-26T18:53:23.132Z,19.00
2019-05-26T18:55:54.264Z,19.00
2019-05-26T18:58:25.461Z,19.00
2019-05-26T19:00:57.816Z,19.00
2019-05-26T19:03:30.133Z,18.90
2019-05-26T19:06:00.738Z,18.90
2019-05-26T19:08:32.636Z,18.90
2019-05-26T19:11:03.616Z,18.80
2019-05-26T19:13:37.083Z,18.80
2019-05-26T19:16:08.576Z,18.80
2019-05-26T19:18:39.187Z,18.80
2019-05-26T19:21:10.086Z,18.80
2019-05-26T19:23:41.696Z,18.80
2019-05-26T19:26:12.605Z,18.70
2019-05-26T19:28:43.449Z,18.70
2019-05-26T19:31:15.363Z,18.70
2019-05-26T19:33:47.327Z,18.70
2019-05-26T19:36:17.938Z,18.60
2019-05-26T19:38:51.230Z,18.60
2019-05-26T19:41:22.339Z,18.50
2019-05-26T19:43:55.028Z,18.50
2019-05-26T19:46:25.724Z,18.40
2019-05-26T19:48:56.309Z,18.30
2019-05-26T19:51:28.042Z,18.30
2019-05-26T19:53:58.717Z,18.20
2019-05-26T19:56:29.415Z,18.20
2019-05-26T19:59:00.068Z,18.10
2019-05-26T20:01:30.714Z,18.10
2019-05-26T20:04:01.546Z,18.10
2019-05-26T20:06:32.491Z,18.10
2019-05-26T20:09:03.042Z,18.00
2019-05-26T20:11:34.440Z,18.00
2019-05-26T20:14:05.647Z,18.00
2019-05-26T20:16:35.637Z,18.00
2019-05-26T20:19:06.644Z,17.90
2019-05-26T20:21:38.690Z,17.90
2019-05-26T20:24:09.279Z,17.90
2019-05-26T20:26:51.553Z,17.80
2019-05-26T20:29:22.267Z,17.80
2019-05-26T20:31:54.171Z,17.80
2019-05-26T20:34:25.229Z,17.70
2019-05-26T20:36:55.886Z,17.70
2019-05-26T20:39:26.591Z,17.70
2019-05-26T20:41:57.175Z,17.60
2019-05-26T20:44:27.783Z,17.60
2019-05-26T20:46:58.728Z,17.70
2019-05-26T20:49:44.466Z,17.60
2019-05-26T20:52:03.902Z,17.50
2019-05-26T20:54:37.518Z,17.40
2019-05-26T20:57:08.200Z,17.30
2019-05-26T20:59:41.287Z,17.20
2019-05-26T21:02:12.965Z,17.20
2019-05-26T21:04:47.792Z,17.20
2019-05-26T21:07:18.757Z,17.20
2019-05-26T21:09:49.448Z,17.10
2019-05-26T21:12:20.075Z,17.10
2019-05-26T21:14:50.771Z,17.10
2019-05-26T21:17:21.420Z,17.00
2019-05-26T21:19:52.181Z,17.00
2019-05-26T21:22:26.854Z,17.00
2019-05-26T21:24:59.218Z,17.00
2019-05-26T21:27:32.052Z,16.90
2019-05-26T21:30:03.893Z,16.90
2019-05-26T21:32:43.344Z,16.90
2019-05-26T21:35:18.103Z,16.90
2019-05-26T21:37:49.740Z,16.90
2019-05-26T21:40:20.428Z,16.80
2019-05-26T21:42:51.061Z,16.80
2019-05-26T21:45:21.923Z,16.80
2019-05-26T21:47:54.207Z,16.80
2019-05-26T21:50:25.178Z,16.80
2019-05-26T21:52:55.867Z,16.70
2019-05-26T21:55:29.702Z,16.70
2019-05-26T21:58:01.355Z,16.60
2019-05-26T22:00:37.293Z,16.60
2019-05-26T22:03:10.166Z,16.50
2019-05-26T22:05:41.286Z,16.40
2019-05-26T22:08:12.029Z,16.40
2019-05-26T22:10:42.813Z,16.30
2019-05-26T22:13:13.451Z,16.30
2019-05-26T22:15:44.153Z,16.30
2019-05-26T22:18:16.590Z,16.20
2019-05-26T22:20:47.384Z,16.10
2019-05-26T22:23:18.103Z,16.10
2019-05-26T22:25:48.880Z,16.00
2019-05-26T22:28:20.011Z,15.90
2019-05-26T22:30:50.782Z,15.80
2019-05-26T22:33:24.582Z,15.80
2019-05-26T22:35:55.417Z,15.70
2019-05-26T22:38:26.094Z,15.60
2019-05-26T22:40:56.925Z,15.60
2019-05-26T22:43:27.818Z,15.60
2019-05-26T22:45:58.917Z,15.50
2019-05-26T22:48:29.858Z,15.40
2019-05-26T22:51:00.753Z,15.30
2019-05-26T22:53:31.415Z,15.30
2019-05-26T22:56:02.310Z,15.20
2019-05-26T22:58:34.519Z,15.10
2019-05-26T23:01:05.203Z,15.10
2019-05-26T23:03:36.092Z,15.00
2019-05-26T23:06:06.878Z,14.90
2019-05-26T23:08:38.119Z,14.80
2019-05-26T23:11:07.618Z,14.70
2019-05-26T23:13:39.354Z,14.60
2019-05-26T23:16:11.617Z,14.50
2019-05-26T23:18:42.382Z,14.40
2019-05-26T23:21:13.136Z,14.30
2019-05-26T23:23:44.914Z,14.30
2019-05-26T23:26:15.614Z,14.20
2019-05-26T23:28:46.375Z,14.10
2019-05-26T23:31:17.099Z,14.10
2019-05-26T23:33:47.779Z,14.00
2019-05-26T23:36:18.425Z,13.90
2019-05-26T23:38:49.157Z,13.90
2019-05-26T23:41:19.792Z,13.90
2019-05-26T23:43:50.612Z,13.80
2019-05-26T23:46:21.345Z,13.80
2019-05-26T23:48:54.891Z,13.80
2019-05-26T23:51:25.730Z,13.80
2019-05-26T23:53:56.396Z,13.80
2019-05-26T23:56:27.100Z,13.80
2019-05-26T23:58:57.905Z,13.80
